sensor_id;sensor_type;location;lat;lon;timestamp;pressure;altitude;pressure_sealevel;temperature
68440;BMP180;55421;51.600;5.718;2023-03-01T00:01:38;213832.00;;;-1.02
68440;BMP180;55421;51.600;5.718;2023-03-01T00:04:04;213846.00;;;-1.00
68440;BMP180;55421;51.600;5.718;2023-03-01T00:09:01;213845.20;;;-1.00
68440;BMP180;55421;51.600;5.718;2023-03-01T00:11:31;213832.00;;;-1.00
68440;BMP180;55421;51.600;5.718;2023-03-01T00:14:00;213807.59;;;-1.10
68440;BMP180;55421;51.600;5.718;2023-03-01T00:16:33;213775.00;;;-1.10
68440;BMP180;55421;51.600;5.718;2023-03-01T00:18:59;213745.20;;;-1.20
68440;BMP180;55421;51.600;5.718;2023-03-01T00:21:27;213712.80;;;-1.22
68440;BMP180;55421;51.600;5.718;2023-03-01T00:23:54;213677.59;;;-1.30
68440;BMP180;55421;51.600;5.718;2023-03-01T00:26:23;213646.59;;;-1.40
68440;BMP180;55421;51.600;5.718;2023-03-01T00:28:51;213624.59;;;-1.40
68440;BMP180;55421;51.600;5.718;2023-03-01T00:31:22;213607.00;;;-1.42
68440;BMP180;55421;51.600;5.718;2023-03-01T00:33:53;213583.00;;;-1.50
68440;BMP180;55421;51.600;5.718;2023-03-01T00:36:26;213589.00;;;-1.50
68440;BMP180;55421;51.600;5.718;2023-03-01T00:38:54;213616.59;;;-1.40
68440;BMP180;55421;51.600;5.718;2023-03-01T00:41:22;213642.59;;;-1.40
68440;BMP180;55421;51.600;5.718;2023-03-01T00:43:50;213655.80;;;-1.36
68440;BMP180;55421;51.600;5.718;2023-03-01T00:46:21;213653.41;;;-1.38
68440;BMP180;55421;51.600;5.718;2023-03-01T00:48:48;213643.41;;;-1.40
68440;BMP180;55421;51.600;5.718;2023-03-01T00:51:24;213620.20;;;-1.40
68440;BMP180;55421;51.600;5.718;2023-03-01T00:53:58;213593.41;;;-1.48
68440;BMP180;55421;51.600;5.718;2023-03-01T00:56:25;213569.00;;;-1.50
68440;BMP180;55421;51.600;5.718;2023-03-01T00:58:52;213542.00;;;-1.60
68440;BMP180;55421;51.600;5.718;2023-03-01T01:01:25;213519.41;;;-1.60
68440;BMP180;55421;51.600;5.718;2023-03-01T01:04:03;213491.41;;;-1.62
68440;BMP180;55421;51.600;5.718;2023-03-01T01:06:35;213454.59;;;-1.70
68440;BMP180;55421;51.600;5.718;2023-03-01T01:09:05;213425.80;;;-1.80
68440;BMP180;55421;51.600;5.718;2023-03-01T01:11:33;213395.20;;;-1.80
68440;BMP180;55421;51.600;5.718;2023-03-01T01:14:02;213386.00;;;-1.82
68440;BMP180;55421;51.600;5.718;2023-03-01T01:16:29;213392.41;;;-1.80
68440;BMP180;55421;51.600;5.718;2023-03-01T01:18:56;213408.20;;;-1.80
68440;BMP180;55421;51.600;5.718;2023-03-01T01:21:25;213431.41;;;-1.80
68440;BMP180;55421;51.600;5.718;2023-03-01T01:23:51;213444.59;;;-1.72
68440;BMP180;55421;51.600;5.718;2023-03-01T01:26:26;213429.80;;;-1.80
68440;BMP180;55421;51.600;5.718;2023-03-01T01:28:53;213399.59;;;-1.80
68440;BMP180;55421;51.600;5.718;2023-03-01T01:31:21;213389.20;;;-1.80
68440;BMP180;55421;51.600;5.718;2023-03-01T01:33:54;213390.00;;;-1.80
68440;BMP180;55421;51.600;5.718;2023-03-01T01:36:20;213388.80;;;-1.82
68440;BMP180;55421;51.600;5.718;2023-03-01T01:38:48;213388.80;;;-1.80
68440;BMP180;55421;51.600;5.718;2023-03-01T01:41:15;213384.80;;;-1.80
68440;BMP180;55421;51.600;5.718;2023-03-01T01:43:47;213372.41;;;-1.90
68440;BMP180;55421;51.600;5.718;2023-03-01T01:49:01;213335.59;;;-1.90
68440;BMP180;55421;51.600;5.718;2023-03-01T01:51:39;213301.20;;;-2.00
68440;BMP180;55421;51.600;5.718;2023-03-01T01:54:13;213273.59;;;-2.00
68440;BMP180;55421;51.600;5.718;2023-03-01T01:56:48;213264.00;;;-2.04
68440;BMP180;55421;51.600;5.718;2023-03-01T01:59:16;213255.59;;;-2.08
68440;BMP180;55421;51.600;5.718;2023-03-01T02:01:43;213272.00;;;-2.00
68440;BMP180;55421;51.600;5.718;2023-03-01T02:04:10;213290.80;;;-2.00
68440;BMP180;55421;51.600;5.718;2023-03-01T02:06:44;213298.80;;;-2.00
68440;BMP180;55421;51.600;5.718;2023-03-01T02:09:15;213280.80;;;-2.00
68440;BMP180;55421;51.600;5.718;2023-03-01T02:11:44;213242.80;;;-2.10
68440;BMP180;55421;51.600;5.718;2023-03-01T02:14:10;213222.80;;;-2.10
68440;BMP180;55421;51.600;5.718;2023-03-01T02:16:37;213200.41;;;-2.16
68440;BMP180;55421;51.600;5.718;2023-03-01T02:19:04;213170.00;;;-2.20
68440;BMP180;55421;51.600;5.718;2023-03-01T02:30:20;213139.59;;;-2.30
68440;BMP180;55421;51.600;5.718;2023-03-01T02:32:50;213168.41;;;-2.20
68440;BMP180;55421;51.600;5.718;2023-03-01T02:35:18;213179.20;;;-2.20
68440;BMP180;55421;51.600;5.718;2023-03-01T02:37:47;213175.20;;;-2.20
68440;BMP180;55421;51.600;5.718;2023-03-01T02:40:17;213165.20;;;-2.20
68440;BMP180;55421;51.600;5.718;2023-03-01T02:42:51;213150.80;;;-2.26
68440;BMP180;55421;51.600;5.718;2023-03-01T02:45:20;213121.00;;;-2.30
68440;BMP180;55421;51.600;5.718;2023-03-01T02:47:46;213104.59;;;-2.30
68440;BMP180;55421;51.600;5.718;2023-03-01T02:50:44;213103.00;;;-2.30
68440;BMP180;55421;51.600;5.718;2023-03-01T02:53:27;213107.41;;;-2.30
68440;BMP180;55421;51.600;5.718;2023-03-01T02:55:56;213103.41;;;-2.30
68440;BMP180;55421;51.600;5.718;2023-03-01T02:58:23;213096.59;;;-2.34
68440;BMP180;55421;51.600;5.718;2023-03-01T03:00:50;213074.20;;;-2.40
68440;BMP180;55421;51.600;5.718;2023-03-01T03:03:20;213039.41;;;-2.48
68440;BMP180;55421;51.600;5.718;2023-03-01T03:05:47;213001.00;;;-2.50
68440;BMP180;55421;51.600;5.718;2023-03-01T03:08:14;212963.80;;;-2.60
68440;BMP180;55421;51.600;5.718;2023-03-01T03:10:49;212940.59;;;-2.60
68440;BMP180;55421;51.600;5.718;2023-03-01T03:13:16;212941.80;;;-2.60
68440;BMP180;55421;51.600;5.718;2023-03-01T03:15:43;212954.20;;;-2.60
68440;BMP180;55421;51.600;5.718;2023-03-01T03:18:16;212959.80;;;-2.60
68440;BMP180;55421;51.600;5.718;2023-03-01T03:20:44;212943.00;;;-2.60
68440;BMP180;55421;51.600;5.718;2023-03-01T03:23:11;212925.00;;;-2.62
68440;BMP180;55421;51.600;5.718;2023-03-01T03:25:38;212918.59;;;-2.68
68440;BMP180;55421;51.600;5.718;2023-03-01T03:28:06;212905.41;;;-2.70
68440;BMP180;55421;51.600;5.718;2023-03-01T03:30:40;212887.00;;;-2.70
68440;BMP180;55421;51.600;5.718;2023-03-01T03:33:07;212865.80;;;-2.80
68440;BMP180;55421;51.600;5.718;2023-03-01T03:35:42;212867.00;;;-2.78
68440;BMP180;55421;51.600;5.718;2023-03-01T03:38:12;212882.20;;;-2.70
68440;BMP180;55421;51.600;5.718;2023-03-01T03:41:03;212894.59;;;-2.70
68440;BMP180;55421;51.600;5.718;2023-03-01T03:43:33;212903.80;;;-2.70
68440;BMP180;55421;51.600;5.718;2023-03-01T03:46:01;212902.59;;;-2.70
68440;BMP180;55421;51.600;5.718;2023-03-01T03:48:41;212884.59;;;-2.70
68440;BMP180;55421;51.600;5.718;2023-03-01T03:51:15;212870.20;;;-2.74
68440;BMP180;55421;51.600;5.718;2023-03-01T03:53:43;212853.59;;;-2.80
68440;BMP180;55421;51.600;5.718;2023-03-01T03:56:10;212829.59;;;-2.80
68440;BMP180;55421;51.600;5.718;2023-03-01T03:58:37;212818.41;;;-2.82
68440;BMP180;55421;51.600;5.718;2023-03-01T04:01:03;212833.59;;;-2.80
68440;BMP180;55421;51.600;5.718;2023-03-01T04:03:32;212842.41;;;-2.80
68440;BMP180;55421;51.600;5.718;2023-03-01T04:06:00;212853.20;;;-2.80
68440;BMP180;55421;51.600;5.718;2023-03-01T04:08:28;212853.20;;;-2.80
68440;BMP180;55421;51.600;5.718;2023-03-01T04:11:03;212839.59;;;-2.80
68440;BMP180;55421;51.600;5.718;2023-03-01T04:13:57;212829.20;;;-2.80
68440;BMP180;55421;51.600;5.718;2023-03-01T04:16:24;212819.59;;;-2.80
68440;BMP180;55421;51.600;5.718;2023-03-01T04:18:51;212801.59;;;-2.90
68440;BMP180;55421;51.600;5.718;2023-03-01T04:21:19;212791.59;;;-2.90
68440;BMP180;55421;51.600;5.718;2023-03-01T04:23:46;212798.80;;;-2.90
68440;BMP180;55421;51.600;5.718;2023-03-01T04:26:13;212809.20;;;-2.88
68440;BMP180;55421;51.600;5.718;2023-03-01T04:28:41;212812.00;;;-2.88
68440;BMP180;55421;51.600;5.718;2023-03-01T04:31:17;212812.00;;;-2.88
68440;BMP180;55421;51.600;5.718;2023-03-01T04:33:51;212801.20;;;-2.90
68440;BMP180;55421;51.600;5.718;2023-03-01T04:36:20;212786.80;;;-2.90
68440;BMP180;55421;51.600;5.718;2023-03-01T04:38:47;212764.59;;;-2.92
68440;BMP180;55421;51.600;5.718;2023-03-01T04:41:18;212740.59;;;-3.00
68440;BMP180;55421;51.600;5.718;2023-03-01T04:43:45;212723.41;;;-3.00
68440;BMP180;55421;51.600;5.718;2023-03-01T04:46:15;212716.41;;;-3.00
68440;BMP180;55421;51.600;5.718;2023-03-01T04:48:45;212719.59;;;-3.00
68440;BMP180;55421;51.600;5.718;2023-03-01T04:51:12;212731.59;;;-3.00
68440;BMP180;55421;51.600;5.718;2023-03-01T04:53:41;212728.20;;;-3.00
68440;BMP180;55421;51.600;5.718;2023-03-01T04:56:08;212724.00;;;-3.00
68440;BMP180;55421;51.600;5.718;2023-03-01T04:58:34;212719.20;;;-3.00
68440;BMP180;55421;51.600;5.718;2023-03-01T05:01:01;212705.59;;;-3.04
68440;BMP180;55421;51.600;5.718;2023-03-01T05:03:27;212698.41;;;-3.08
68440;BMP180;55421;51.600;5.718;2023-03-01T05:05:58;212694.00;;;-3.10
68440;BMP180;55421;51.600;5.718;2023-03-01T05:08:25;212713.59;;;-3.00
68440;BMP180;55421;51.600;5.718;2023-03-01T05:10:53;212743.00;;;-3.00
68440;BMP180;55421;51.600;5.718;2023-03-01T05:13:21;212760.00;;;-2.98
68440;BMP180;55421;51.600;5.718;2023-03-01T05:15:59;212771.59;;;-2.90
68440;BMP180;55421;51.600;5.718;2023-03-01T05:18:27;212773.20;;;-2.90
68440;BMP180;55421;51.600;5.718;2023-03-01T05:20:56;212768.41;;;-2.90
68440;BMP180;55421;51.600;5.718;2023-03-01T05:23:27;212757.20;;;-3.00
68440;BMP180;55421;51.600;5.718;2023-03-01T05:25:54;212729.20;;;-3.00
68440;BMP180;55421;51.600;5.718;2023-03-01T05:28:23;212705.20;;;-3.02
68440;BMP180;55421;51.600;5.718;2023-03-01T05:30:49;212694.00;;;-3.08
68440;BMP180;55421;51.600;5.718;2023-03-01T05:33:18;212690.80;;;-3.10
68440;BMP180;55421;51.600;5.718;2023-03-01T05:35:45;212688.00;;;-3.10
68440;BMP180;55421;51.600;5.718;2023-03-01T05:38:12;212677.20;;;-3.10
68440;BMP180;55421;51.600;5.718;2023-03-01T05:40:44;212655.20;;;-3.10
68440;BMP180;55421;51.600;5.718;2023-03-01T05:43:12;212628.00;;;-3.18
68440;BMP180;55421;51.600;5.718;2023-03-01T05:45:40;212618.41;;;-3.20
68440;BMP180;55421;51.600;5.718;2023-03-01T05:48:08;212588.41;;;-3.26
68440;BMP180;55421;51.600;5.718;2023-03-01T05:50:43;212565.00;;;-3.30
68440;BMP180;55421;51.600;5.718;2023-03-01T05:53:17;212535.41;;;-3.30
68440;BMP180;55421;51.600;5.718;2023-03-01T05:55:45;212513.80;;;-3.40
68440;BMP180;55421;51.600;5.718;2023-03-01T05:58:17;212513.80;;;-3.40
68440;BMP180;55421;51.600;5.718;2023-03-01T06:00:46;212529.00;;;-3.36
68440;BMP180;55421;51.600;5.718;2023-03-01T06:03:15;212561.80;;;-3.30
68440;BMP180;55421;51.600;5.718;2023-03-01T06:05:43;212573.00;;;-3.30
68440;BMP180;55421;51.600;5.718;2023-03-01T06:08:11;212581.80;;;-3.30
68440;BMP180;55421;51.600;5.718;2023-03-01T06:10:38;212581.41;;;-3.30
68440;BMP180;55421;51.600;5.718;2023-03-01T06:13:05;212571.41;;;-3.30
68440;BMP180;55421;51.600;5.718;2023-03-01T06:15:34;212560.20;;;-3.30
68440;BMP180;55421;51.600;5.718;2023-03-01T06:18:01;212529.00;;;-3.36
68440;BMP180;55421;51.600;5.718;2023-03-01T06:20:28;212513.80;;;-3.40
68440;BMP180;55421;51.600;5.718;2023-03-01T06:22:55;212515.00;;;-3.40
68440;BMP180;55421;51.600;5.718;2023-03-01T06:25:25;212519.41;;;-3.40
68440;BMP180;55421;51.600;5.718;2023-03-01T06:27:52;212522.20;;;-3.40
68440;BMP180;55421;51.600;5.718;2023-03-01T06:30:21;212520.59;;;-3.40
68440;BMP180;55421;51.600;5.718;2023-03-01T06:32:48;212515.41;;;-3.40
68440;BMP180;55421;51.600;5.718;2023-03-01T06:35:17;212516.59;;;-3.40
68440;BMP180;55421;51.600;5.718;2023-03-01T06:37:46;212519.41;;;-3.40
68440;BMP180;55421;51.600;5.718;2023-03-01T06:40:15;212519.41;;;-3.40
68440;BMP180;55421;51.600;5.718;2023-03-01T06:42:43;212538.20;;;-3.30
68440;BMP180;55421;51.600;5.718;2023-03-01T06:45:13;212585.80;;;-3.28
68440;BMP180;55421;51.600;5.718;2023-03-01T06:47:39;212633.20;;;-3.20
68440;BMP180;55421;51.600;5.718;2023-03-01T06:50:06;212669.20;;;-3.10
68440;BMP180;55421;51.600;5.718;2023-03-01T06:52:33;212698.41;;;-3.10
68440;BMP180;55421;51.600;5.718;2023-03-01T06:55:00;212711.20;;;-3.00
68440;BMP180;55421;51.600;5.718;2023-03-01T06:57:27;212728.41;;;-3.00
68440;BMP180;55421;51.600;5.718;2023-03-01T06:59:54;212743.20;;;-3.00
68440;BMP180;55421;51.600;5.718;2023-03-01T07:02:21;212753.59;;;-3.00
68440;BMP180;55421;51.600;5.718;2023-03-01T07:04:51;212758.80;;;-2.98
68440;BMP180;55421;51.600;5.718;2023-03-01T07:07:18;212770.00;;;-2.92
68440;BMP180;55421;51.600;5.718;2023-03-01T07:09:46;212797.59;;;-2.90
68440;BMP180;55421;51.600;5.718;2023-03-01T07:12:13;212840.00;;;-2.80
68440;BMP180;55421;51.600;5.718;2023-03-01T07:14:44;212868.59;;;-2.80
68440;BMP180;55421;51.600;5.718;2023-03-01T07:17:13;212884.59;;;-2.70
68440;BMP180;55421;51.600;5.718;2023-03-01T07:19:40;212903.41;;;-2.70
68440;BMP180;55421;51.600;5.718;2023-03-01T07:22:07;212932.20;;;-2.60
68440;BMP180;55421;51.600;5.718;2023-03-01T07:24:36;212948.59;;;-2.60
68440;BMP180;55421;51.600;5.718;2023-03-01T07:27:02;212971.41;;;-2.60
68440;BMP180;55421;51.600;5.718;2023-03-01T07:29:29;213008.59;;;-2.50
68440;BMP180;55421;51.600;5.718;2023-03-01T07:31:56;213053.80;;;-2.40
68440;BMP180;55421;51.600;5.718;2023-03-01T07:34:22;213108.59;;;-2.30
68440;BMP180;55421;51.600;5.718;2023-03-01T07:36:49;213166.80;;;-2.20
68440;BMP180;55421;51.600;5.718;2023-03-01T07:39:15;213215.59;;;-2.12
68440;BMP180;55421;51.600;5.718;2023-03-01T07:41:42;213268.00;;;-2.06
68440;BMP180;55421;51.600;5.718;2023-03-01T07:44:08;213306.80;;;-2.00
68440;BMP180;55421;51.600;5.718;2023-03-01T07:46:35;213337.20;;;-1.90
68440;BMP180;55421;51.600;5.718;2023-03-01T07:49:02;213384.41;;;-1.86
68440;BMP180;55421;51.600;5.718;2023-03-01T07:51:28;213438.59;;;-1.72
68440;BMP180;55421;51.600;5.718;2023-03-01T07:53:55;213517.00;;;-1.60
68440;BMP180;55421;51.600;5.718;2023-03-01T07:56:21;213583.00;;;-1.50
68440;BMP180;55421;51.600;5.718;2023-03-01T07:58:48;213643.41;;;-1.40
68440;BMP180;55421;51.600;5.718;2023-03-01T08:01:19;213696.00;;;-1.30
68440;BMP180;55421;51.600;5.718;2023-03-01T08:03:46;213748.00;;;-1.20
68440;BMP180;55421;51.600;5.718;2023-03-01T08:06:16;213797.00;;;-1.10
68440;BMP180;55421;51.600;5.718;2023-03-01T08:08:43;213838.41;;;-1.00
68440;BMP180;55421;51.600;5.718;2023-03-01T08:11:12;213875.59;;;-0.98
68440;BMP180;55421;51.600;5.718;2023-03-01T08:13:39;213941.59;;;-0.86
68440;BMP180;55421;51.600;5.718;2023-03-01T08:16:13;214001.00;;;-0.70
68440;BMP180;55421;51.600;5.718;2023-03-01T08:18:41;214077.20;;;-0.60
68440;BMP180;55421;51.600;5.718;2023-03-01T08:21:13;214133.80;;;-0.50
68440;BMP180;55421;51.600;5.718;2023-03-01T08:23:41;214192.20;;;-0.40
68440;BMP180;55421;51.600;5.718;2023-03-01T08:26:19;214236.20;;;-0.30
68440;BMP180;55421;51.600;5.718;2023-03-01T08:28:48;214268.00;;;-0.28
68440;BMP180;55421;51.600;5.718;2023-03-01T08:31:26;214293.41;;;-0.20
68440;BMP180;55421;51.600;5.718;2023-03-01T08:33:57;214327.00;;;-0.20
68440;BMP180;55421;51.600;5.718;2023-03-01T08:36:33;214350.20;;;-0.10
68440;BMP180;55421;51.600;5.718;2023-03-01T08:39:01;214399.59;;;0.00
68440;BMP180;55421;51.600;5.718;2023-03-01T08:41:28;214460.41;;;0.10
68440;BMP180;55421;51.600;5.718;2023-03-01T08:43:55;214518.59;;;0.20
68440;BMP180;55421;51.600;5.718;2023-03-01T08:46:30;214581.20;;;0.30
68440;BMP180;55421;51.600;5.718;2023-03-01T08:48:57;214614.41;;;0.40
68440;BMP180;55421;51.600;5.718;2023-03-01T08:51:26;214645.00;;;0.40
68440;BMP180;55421;51.600;5.718;2023-03-01T08:53:52;214662.20;;;0.46
68440;BMP180;55421;51.600;5.718;2023-03-01T08:56:19;214685.80;;;0.50
68440;BMP180;55421;51.600;5.718;2023-03-01T08:58:48;214705.80;;;0.50
68440;BMP180;55421;51.600;5.718;2023-03-01T09:01:18;214725.00;;;0.58
68440;BMP180;55421;51.600;5.718;2023-03-01T09:03:45;214745.41;;;0.60
68440;BMP180;55421;51.600;5.718;2023-03-01T09:06:13;214775.00;;;0.66
68440;BMP180;55421;51.600;5.718;2023-03-01T09:08:47;214812.80;;;0.70
68440;BMP180;55421;51.600;5.718;2023-03-01T09:11:18;214857.41;;;0.80
68440;BMP180;55421;51.600;5.718;2023-03-01T09:13:48;214894.59;;;0.86
68440;BMP180;55421;51.600;5.718;2023-03-01T09:16:18;214926.20;;;0.90
68440;BMP180;55421;51.600;5.718;2023-03-01T09:18:49;214968.00;;;1.00
68440;BMP180;55421;51.600;5.718;2023-03-01T09:21:18;215020.41;;;1.10
68440;BMP180;55421;51.600;5.718;2023-03-01T09:23:48;215074.80;;;1.20
68440;BMP180;55421;51.600;5.718;2023-03-01T09:26:20;215139.59;;;1.30
68440;BMP180;55421;51.600;5.718;2023-03-01T09:28:53;215199.59;;;1.40
68440;BMP180;55421;51.600;5.718;2023-03-01T09:31:23;215245.80;;;1.50
68440;BMP180;55421;51.600;5.718;2023-03-01T09:33:53;215291.00;;;1.60
68440;BMP180;55421;51.600;5.718;2023-03-01T09:36:23;215321.80;;;1.60
68440;BMP180;55421;51.600;5.718;2023-03-01T09:38:54;215349.59;;;1.70
68440;BMP180;55421;51.600;5.718;2023-03-01T09:45:06;215429.00;;;1.80
68440;BMP180;55421;51.600;5.718;2023-03-01T09:47:36;215447.80;;;1.86
68440;BMP180;55421;51.600;5.718;2023-03-01T09:50:14;215483.41;;;1.90
68440;BMP180;55421;51.600;5.718;2023-03-01T09:52:49;215536.00;;;2.00
68440;BMP180;55421;51.600;5.718;2023-03-01T09:55:45;215572.00;;;2.10
68440;BMP180;55421;51.600;5.718;2023-03-01T10:01:35;215661.59;;;2.20
68440;BMP180;55421;51.600;5.718;2023-03-01T10:09:44;215761.59;;;2.40
68440;BMP180;55421;51.600;5.718;2023-03-01T10:12:20;215785.80;;;2.44
68440;BMP180;55421;51.600;5.718;2023-03-01T10:15:10;215834.20;;;2.54
68440;BMP180;55421;51.600;5.718;2023-03-01T10:17:52;215911.41;;;2.66
68440;BMP180;55421;51.600;5.718;2023-03-01T10:20:25;215946.59;;;2.70
68440;BMP180;55421;51.600;5.718;2023-03-01T10:22:52;215969.41;;;2.80
68440;BMP180;55421;51.600;5.718;2023-03-01T10:29:06;216019.00;;;2.90
68440;BMP180;55421;51.600;5.718;2023-03-01T10:31:47;216071.59;;;2.98
68440;BMP180;55421;51.600;5.718;2023-03-01T10:34:35;216114.80;;;3.00
68440;BMP180;55421;51.600;5.718;2023-03-01T10:37:21;216145.41;;;3.10
68440;BMP180;55421;51.600;5.718;2023-03-01T10:40:09;216175.41;;;3.10
68440;BMP180;55421;51.600;5.718;2023-03-01T10:42:48;216184.59;;;3.20
68440;BMP180;55421;51.600;5.718;2023-03-01T10:48:11;216268.00;;;3.30
68440;BMP180;55421;51.600;5.718;2023-03-01T10:50:48;216307.59;;;3.40
68440;BMP180;55421;51.600;5.718;2023-03-01T10:53:30;216351.00;;;3.42
68440;BMP180;55421;51.600;5.718;2023-03-01T10:56:08;216374.80;;;3.50
68440;BMP180;55421;51.600;5.718;2023-03-01T10:58:37;216408.41;;;3.56
68440;BMP180;55421;51.600;5.718;2023-03-01T11:01:33;216449.20;;;3.60
68440;BMP180;55421;51.600;5.718;2023-03-01T11:06:35;216483.41;;;3.70
68440;BMP180;55421;51.600;5.718;2023-03-01T11:09:20;216508.59;;;3.70
68440;BMP180;55421;51.600;5.718;2023-03-01T11:11:56;216547.80;;;3.80
68440;BMP180;55421;51.600;5.718;2023-03-01T11:14:26;216591.80;;;3.90
68440;BMP180;55421;51.600;5.718;2023-03-01T11:17:16;216646.41;;;4.00
68440;BMP180;55421;51.600;5.718;2023-03-01T11:22:55;216711.00;;;4.10
68440;BMP180;55421;51.600;5.718;2023-03-01T11:25:33;216732.59;;;4.10
68440;BMP180;55421;51.600;5.718;2023-03-01T11:28:04;216752.59;;;4.20
68440;BMP180;55421;51.600;5.718;2023-03-01T11:31:00;216787.59;;;4.20
68440;BMP180;55421;51.600;5.718;2023-03-01T11:34:11;216808.00;;;4.30
68440;BMP180;55421;51.600;5.718;2023-03-01T11:36:49;216822.80;;;4.30
68440;BMP180;55421;51.600;5.718;2023-03-01T11:39:47;216826.80;;;4.30
68440;BMP180;55421;51.600;5.718;2023-03-01T11:42:25;216867.20;;;4.40
68440;BMP180;55421;51.600;5.718;2023-03-01T11:44:59;216890.80;;;4.40
68440;BMP180;55421;51.600;5.718;2023-03-01T11:47:43;216883.20;;;4.40
68440;BMP180;55421;51.600;5.718;2023-03-01T11:50:30;216860.41;;;4.38
68440;BMP180;55421;51.600;5.718;2023-03-01T12:10:46;217011.59;;;4.60
68440;BMP180;55421;51.600;5.718;2023-03-01T12:13:51;217026.41;;;4.62
68440;BMP180;55421;51.600;5.718;2023-03-01T12:25:16;217056.80;;;4.70
68440;BMP180;55421;51.600;5.718;2023-03-01T12:33:32;217057.80;;;4.70
68440;BMP180;55421;51.600;5.718;2023-03-01T12:36:43;217067.00;;;4.70
68440;BMP180;55421;51.600;5.718;2023-03-01T12:45:34;217151.20;;;4.90
68440;BMP180;55421;51.600;5.718;2023-03-01T12:50:58;217151.20;;;4.90
68440;BMP180;55421;51.600;5.718;2023-03-01T12:53:32;217173.59;;;4.90
68440;BMP180;55421;51.600;5.718;2023-03-01T12:56:12;217221.80;;;5.00
68440;BMP180;55421;51.600;5.718;2023-03-01T12:59:00;217247.00;;;5.00
68440;BMP180;55421;51.600;5.718;2023-03-01T13:04:54;217237.80;;;5.00
68440;BMP180;55421;51.600;5.718;2023-03-01T13:10:34;217263.00;;;5.10
68440;BMP180;55421;51.600;5.718;2023-03-01T13:15:36;217270.20;;;5.10
68440;BMP180;55421;51.600;5.718;2023-03-01T13:20:56;217269.00;;;5.10
68440;BMP180;55421;51.600;5.718;2023-03-01T13:23:29;217294.59;;;5.10
68440;BMP180;55421;51.600;5.718;2023-03-01T13:26:17;217329.00;;;5.20
68440;BMP180;55421;51.600;5.718;2023-03-01T13:37:20;217374.41;;;5.30
68440;BMP180;55421;51.600;5.718;2023-03-01T13:39:47;217386.80;;;5.30
68440;BMP180;55421;51.600;5.718;2023-03-01T13:42:38;217400.80;;;5.30
68440;BMP180;55421;51.600;5.718;2023-03-01T13:45:21;217404.20;;;5.30
68440;BMP180;55421;51.600;5.718;2023-03-01T13:47:58;217418.20;;;5.30
68440;BMP180;55421;51.600;5.718;2023-03-01T13:50:38;217443.00;;;5.40
68440;BMP180;55421;51.600;5.718;2023-03-01T13:53:18;217461.00;;;5.40
68440;BMP180;55421;51.600;5.718;2023-03-01T13:55:51;217465.00;;;5.40
68440;BMP180;55421;51.600;5.718;2023-03-01T13:58:30;217490.00;;;5.50
68440;BMP180;55421;51.600;5.718;2023-03-01T14:01:04;217487.20;;;5.50
68440;BMP180;55421;51.600;5.718;2023-03-01T14:03:39;217505.20;;;5.50
68440;BMP180;55421;51.600;5.718;2023-03-01T14:06:20;217523.20;;;5.50
68440;BMP180;55421;51.600;5.718;2023-03-01T14:08:50;217527.20;;;5.50
68440;BMP180;55421;51.600;5.718;2023-03-01T14:14:33;217532.00;;;5.54
68440;BMP180;55421;51.600;5.718;2023-03-01T14:22:50;217562.00;;;5.60
68440;BMP180;55421;51.600;5.718;2023-03-01T14:25:33;217556.41;;;5.60
68440;BMP180;55421;51.600;5.718;2023-03-01T14:28:14;217555.20;;;5.60
68440;BMP180;55421;51.600;5.718;2023-03-01T14:30:45;217560.41;;;5.60
68440;BMP180;55421;51.600;5.718;2023-03-01T14:36:05;217586.80;;;5.66
68440;BMP180;55421;51.600;5.718;2023-03-01T14:38:41;217598.00;;;5.70
68440;BMP180;55421;51.600;5.718;2023-03-01T14:41:13;217594.80;;;5.66
68440;BMP180;55421;51.600;5.718;2023-03-01T14:43:47;217602.41;;;5.70
68440;BMP180;55421;51.600;5.718;2023-03-01T14:46:39;217599.59;;;5.70
68440;BMP180;55421;51.600;5.718;2023-03-01T14:49:20;217606.59;;;5.70
68440;BMP180;55421;51.600;5.718;2023-03-01T14:52:02;217623.41;;;5.70
68440;BMP180;55421;51.600;5.718;2023-03-01T14:54:42;217621.00;;;5.70
68440;BMP180;55421;51.600;5.718;2023-03-01T14:57:19;217614.59;;;5.70
68440;BMP180;55421;51.600;5.718;2023-03-01T14:59:46;217623.80;;;5.70
68440;BMP180;55421;51.600;5.718;2023-03-01T15:02:20;217616.80;;;5.70
68440;BMP180;55421;51.600;5.718;2023-03-01T15:04:54;217615.80;;;5.70
68440;BMP180;55421;51.600;5.718;2023-03-01T15:07:30;217622.59;;;5.70
68440;BMP180;55421;51.600;5.718;2023-03-01T15:09:59;217619.00;;;5.70
68440;BMP180;55421;51.600;5.718;2023-03-01T15:12:36;217626.59;;;5.70
68440;BMP180;55421;51.600;5.718;2023-03-01T15:15:23;217621.20;;;5.70
68440;BMP180;55421;51.600;5.718;2023-03-01T15:17:56;217605.00;;;5.70
68440;BMP180;55421;51.600;5.718;2023-03-01T15:20:26;217595.20;;;5.70
68440;BMP180;55421;51.600;5.718;2023-03-01T15:22:55;217592.00;;;5.70
68440;BMP180;55421;51.600;5.718;2023-03-01T15:25:28;217595.20;;;5.68
68440;BMP180;55421;51.600;5.718;2023-03-01T15:27:59;217584.80;;;5.60
68440;BMP180;55421;51.600;5.718;2023-03-01T15:30:30;217579.20;;;5.60
68440;BMP180;55421;51.600;5.718;2023-03-01T15:33:33;217563.20;;;5.60
68440;BMP180;55421;51.600;5.718;2023-03-01T15:36:29;217554.80;;;5.60
68440;BMP180;55421;51.600;5.718;2023-03-01T15:38:57;217543.59;;;5.60
68440;BMP180;55421;51.600;5.718;2023-03-01T15:41:57;217545.20;;;5.60
68440;BMP180;55421;51.600;5.718;2023-03-01T15:44:35;217533.20;;;5.56
68440;BMP180;55421;51.600;5.718;2023-03-01T15:47:23;217514.41;;;5.50
68440;BMP180;55421;51.600;5.718;2023-03-01T15:49:54;217499.59;;;5.50
68440;BMP180;55421;51.600;5.718;2023-03-01T15:52:29;217495.20;;;5.50
68440;BMP180;55421;51.600;5.718;2023-03-01T15:55:20;217484.41;;;5.50
68440;BMP180;55421;51.600;5.718;2023-03-01T15:57:49;217477.80;;;5.40
68440;BMP180;55421;51.600;5.718;2023-03-01T16:00:17;217462.20;;;5.40
68440;BMP180;55421;51.600;5.718;2023-03-01T16:02:45;217442.59;;;5.40
68440;BMP180;55421;51.600;5.718;2023-03-01T16:05:22;217426.20;;;5.36
68440;BMP180;55421;51.600;5.718;2023-03-01T16:07:49;217410.00;;;5.30
68440;BMP180;55421;51.600;5.718;2023-03-01T16:10:17;217399.20;;;5.30
68440;BMP180;55421;51.600;5.718;2023-03-01T16:12:43;217386.80;;;5.30
68440;BMP180;55421;51.600;5.718;2023-03-01T16:15:26;217364.41;;;5.26
68440;BMP180;55421;51.600;5.718;2023-03-01T16:17:53;217342.00;;;5.20
68440;BMP180;55421;51.600;5.718;2023-03-01T16:20:21;217325.80;;;5.20
68440;BMP180;55421;51.600;5.718;2023-03-01T16:22:48;217306.59;;;5.16